Time,TemperatureF,DewpointF,PressureIn,WindDirection,WindDirectionDegrees,WindSpeedMPH,WindSpeedGustMPH,Humidity,HourlyPrecipIn,Conditions,Clouds,dailyrainin,SoftwareType,DateUTC
2013-01-14 00:03:00,44.4,42.8,30.20,SE,135,6.0,21.0,94,0.05,,,0.07,LWC V1.12 B30,2013-01-13 23:03:00,
2013-01-14 00:08:00,44.6,43.0,30.20,SSE,149,6.0,15.0,94,0.04,,,0.07,LWC V1.12 B30,2013-01-13 23:08:00,
2013-01-14 00:13:00,44.9,43.3,30.20,SSE,165,14.0,14.0,94,0.00,,,0.07,LWC V1.12 B30,2013-01-13 23:13:00,
2013-01-14 00:18:00,45.1,43.5,30.20,SE,143,9.0,13.0,94,0.00,,,0.07,LWC V1.12 B30,2013-01-13 23:18:00,
2013-01-14 00:23:00,45.3,43.7,30.20,South,171,6.0,17.0,94,0.00,,,0.07,LWC V1.12 B30,2013-01-13 23:23:00,
2013-01-14 00:28:00,45.4,43.5,30.20,SSE,155,8.0,20.0,93,0.00,,,0.07,LWC V1.12 B30,2013-01-13 23:28:00,
2013-01-14 00:33:00,45.6,43.7,30.20,South,172,18.0,18.0,93,0.00,,,0.07,LWC V1.12 B30,2013-01-13 23:33:00,
2013-01-14 00:38:00,45.7,43.8,30.20,SSW,207,18.0,19.0,93,0.00,,,0.07,LWC V1.12 B30,2013-01-13 23:38:00,
2013-01-14 00:43:00,45.9,44.0,30.20,SSE,148,16.0,23.0,93,0.00,,,0.07,LWC V1.12 B30,2013-01-13 23:43:00,
2013-01-14 00:48:00,46.0,44.1,30.21,SSE,155,16.0,17.0,93,0.00,,,0.07,LWC V1.12 B30,2013-01-13 23:48:00,
2013-01-14 00:53:00,46.3,44.1,30.20,SSE,167,10.0,22.0,92,0.00,,,0.07,LWC V1.12 B30,2013-01-13 23:53:00,
2013-01-14 00:58:00,46.6,44.4,30.20,SSE,160,12.0,17.0,92,0.00,,,0.07,LWC V1.12 B30,2013-01-13 23:58:00,
2013-01-14 01:03:00,46.8,44.6,30.21,SE,146,5.0,25.0,92,0.00,,,0.07,LWC V1.12 B30,2013-01-14 00:03:00,
2013-01-14 01:08:00,47.0,44.8,30.20,North,0,21.0,21.0,92,0.00,,,0.07,LWC V1.12 B30,2013-01-14 00:08:00,
2013-01-14 01:13:00,47.0,44.8,30.20,SSE,157,10.0,17.0,92,0.00,,,0.07,LWC V1.12 B30,2013-01-14 00:13:00,
2013-01-14 01:18:00,47.1,44.9,30.20,SE,138,12.0,23.0,92,0.00,,,0.07,LWC V1.12 B30,2013-01-14 00:18:00,
2013-01-14 01:23:00,47.2,45.0,30.20,SSE,157,9.0,28.0,92,0.00,,,0.07,LWC V1.12 B30,2013-01-14 00:23:00,
2013-01-14 01:28:00,47.3,45.1,30.20,ESE,123,15.0,24.0,92,0.00,,,0.07,LWC V1.12 B30,2013-01-14 00:28:00,
2013-01-14 01:33:00,47.4,44.9,30.19,ESE,117,14.0,31.0,91,0.00,,,0.07,LWC V1.12 B30,2013-01-14 00:33:00,
2013-01-14 01:38:00,47.6,45.1,30.19,SE,133,10.0,26.0,91,0.00,,,0.07,LWC V1.12 B30,2013-01-14 00:38:00,
2013-01-14 01:43:00,47.6,44.8,30.19,SE,134,11.0,19.0,90,0.00,,,0.07,LWC V1.12 B30,2013-01-14 00:43:00,
2013-01-14 01:48:00,47.6,44.8,30.19,SSE,160,18.0,26.0,90,0.00,,,0.07,LWC V1.12 B30,2013-01-14 00:48:00,
2013-01-14 01:53:00,47.7,44.9,30.19,SSE,150,18.0,27.0,90,0.00,,,0.07,LWC V1.12 B30,2013-01-14 00:53:00,
2013-01-14 01:58:00,47.9,45.1,30.20,South,178,5.0,21.0,90,0.00,,,0.07,LWC V1.12 B30,2013-01-14 00:58:00,
2013-01-14 02:03:00,48.0,45.2,30.20,South,187,13.0,20.0,90,0.00,,,0.07,LWC V1.12 B30,2013-01-14 01:03:00,
2013-01-14 02:08:00,47.9,45.1,30.20,North,0,12.0,20.0,90,0.00,,,0.07,LWC V1.12 B30,2013-01-14 01:08:00,
2013-01-14 02:13:00,47.9,45.1,30.20,SSE,147,13.0,19.0,90,0.00,,,0.07,LWC V1.12 B30,2013-01-14 01:13:00,
2013-01-14 02:18:00,48.1,45.3,30.21,South,169,10.0,17.0,90,0.00,,,0.07,LWC V1.12 B30,2013-01-14 01:18:00,
2013-01-14 02:23:00,48.1,45.3,30.20,SE,141,10.0,18.0,90,0.00,,,0.07,LWC V1.12 B30,2013-01-14 01:23:00,
2013-01-14 02:28:00,48.1,45.3,30.20,ESE,123,15.0,16.0,90,0.00,,,0.07,LWC V1.12 B30,2013-01-14 01:28:00,
2013-01-14 02:33:00,48.1,45.0,30.20,SE,142,10.0,22.0,89,0.00,,,0.07,LWC V1.12 B30,2013-01-14 01:33:00,
2013-01-14 02:38:00,48.1,45.0,30.20,SSE,148,9.0,11.0,89,0.00,,,0.07,LWC V1.12 B30,2013-01-14 01:38:00,
2013-01-14 02:43:00,48.1,45.0,30.20,SSE,167,17.0,29.0,89,0.00,,,0.07,LWC V1.12 B30,2013-01-14 01:43:00,
2013-01-14 02:48:00,48.1,45.9,30.20,SSE,157,16.0,16.0,92,0.00,,,0.07,LWC V1.12 B30,2013-01-14 01:48:00,
2013-01-14 02:53:00,48.2,44.8,30.20,SE,144,8.0,17.0,88,0.00,,,0.07,LWC V1.12 B30,2013-01-14 01:53:00,
2013-01-14 02:57:00,48.2,44.8,30.20,SSE,159,15.0,20.0,88,0.00,,,0.07,LWC V1.12 B30,2013-01-14 01:57:00,
2013-01-14 03:02:00,48.2,44.8,30.20,SE,136,16.0,22.0,88,0.00,,,0.07,LWC V1.12 B30,2013-01-14 02:02:00,
2013-01-14 03:07:00,48.2,44.8,30.20,SSE,147,11.0,19.0,88,0.00,,,0.07,LWC V1.12 B30,2013-01-14 02:07:00,
2013-01-14 03:12:00,48.3,44.9,30.20,SE,139,15.0,28.0,88,0.00,,,0.07,LWC V1.12 B30,2013-01-14 02:12:00,
2013-01-14 03:17:00,48.5,45.1,30.20,SSE,149,9.0,21.0,88,0.00,,,0.07,LWC V1.12 B30,2013-01-14 02:17:00,
2013-01-14 03:22:00,48.4,45.0,30.20,North,0,23.0,28.0,88,0.00,,,0.07,LWC V1.12 B30,2013-01-14 02:22:00,
2013-01-14 03:27:00,48.4,45.0,30.20,SE,145,6.0,17.0,88,0.00,,,0.07,LWC V1.12 B30,2013-01-14 02:27:00,
2013-01-14 03:32:00,48.2,44.8,30.20,SSE,155,18.0,18.0,88,0.00,,,0.08,LWC V1.12 B30,2013-01-14 02:32:00,
2013-01-14 03:37:00,48.1,44.7,30.19,SE,136,15.0,21.0,88,0.00,,,0.08,LWC V1.12 B30,2013-01-14 02:37:00,
2013-01-14 03:42:00,48.2,44.8,30.20,SE,146,12.0,20.0,88,0.00,,,0.08,LWC V1.12 B30,2013-01-14 02:42:00,
2013-01-14 03:47:00,48.3,44.9,30.20,North,0,11.0,26.0,88,0.00,,,0.08,LWC V1.12 B30,2013-01-14 02:47:00,
2013-01-14 03:52:00,48.4,45.0,30.21,SSE,160,8.0,22.0,88,0.00,,,0.08,LWC V1.12 B30,2013-01-14 02:52:00,
2013-01-14 03:57:00,48.4,45.3,30.20,SE,128,11.0,16.0,89,0.00,,,0.08,LWC V1.12 B30,2013-01-14 02:57:00,
2013-01-14 04:02:00,48.3,45.2,30.20,SE,138,10.0,19.0,89,0.00,,,0.08,LWC V1.12 B30,2013-01-14 03:02:00,
2013-01-14 04:07:00,48.2,45.1,30.20,SSE,154,6.0,13.0,89,0.00,,,0.08,LWC V1.12 B30,2013-01-14 03:07:00,
2013-01-14 04:12:00,48.2,45.1,30.20,SSE,167,9.0,21.0,89,0.25,,,0.08,LWC V1.12 B30,2013-01-14 03:12:00,
2013-01-14 04:17:00,47.9,44.8,30.20,SSE,158,11.0,18.0,89,0.14,,,0.12,LWC V1.12 B30,2013-01-14 03:17:00,
2013-01-14 04:22:00,47.5,44.1,30.19,South,176,13.0,13.0,88,0.08,,,0.12,LWC V1.12 B30,2013-01-14 03:22:00,
2013-01-14 04:27:00,47.1,43.7,30.20,South,184,1.0,9.0,88,0.05,,,0.12,LWC V1.12 B30,2013-01-14 03:27:00,
2013-01-14 04:32:00,46.7,43.3,30.20,SE,132,9.0,23.0,88,0.00,,,0.12,LWC V1.12 B30,2013-01-14 03:32:00,
2013-01-14 04:37:00,46.6,42.9,30.20,South,180,6.0,15.0,87,0.00,,,0.12,LWC V1.12 B30,2013-01-14 03:37:00,
2013-01-14 04:42:00,46.5,42.5,30.19,SSE,150,5.0,15.0,86,0.00,,,0.12,LWC V1.12 B30,2013-01-14 03:42:00,
2013-01-14 04:47:00,46.5,42.5,30.19,SSE,148,10.0,17.0,86,0.00,,,0.12,LWC V1.12 B30,2013-01-14 03:47:00,
2013-01-14 04:52:00,46.6,42.3,30.19,South,179,7.0,17.0,85,0.00,,,0.12,LWC V1.12 B30,2013-01-14 03:52:00,
2013-01-14 04:57:00,46.8,42.5,30.19,SSE,153,9.0,14.0,85,0.00,,,0.12,LWC V1.12 B30,2013-01-14 03:57:00,
2013-01-14 05:02:00,47.2,42.9,30.19,SE,138,15.0,28.0,85,0.00,,,0.12,LWC V1.12 B30,2013-01-14 04:02:00,
2013-01-14 05:07:00,47.7,43.4,30.19,SSE,160,13.0,20.0,85,0.00,,,0.12,LWC V1.12 B30,2013-01-14 04:07:00,
2013-01-14 05:12:00,47.9,43.9,30.19,SSE,150,11.0,18.0,86,0.00,,,0.12,LWC V1.12 B30,2013-01-14 04:12:00,
2013-01-14 05:17:00,48.0,44.0,30.19,South,183,10.0,22.0,86,0.00,,,0.12,LWC V1.12 B30,2013-01-14 04:17:00,
2013-01-14 05:22:00,48.2,44.2,30.19,South,175,11.0,27.0,86,0.00,,,0.12,LWC V1.12 B30,2013-01-14 04:22:00,
2013-01-14 05:27:00,48.3,44.3,30.19,SE,130,13.0,16.0,86,0.00,,,0.12,LWC V1.12 B30,2013-01-14 04:27:00,
2013-01-14 05:32:00,48.4,44.4,30.19,SE,146,11.0,18.0,86,0.00,,,0.12,LWC V1.12 B30,2013-01-14 04:32:00,
2013-01-14 05:37:00,48.4,44.4,30.19,South,172,9.0,17.0,86,0.00,,,0.12,LWC V1.12 B30,2013-01-14 04:37:00,
2013-01-14 05:42:00,48.3,44.0,30.19,SSE,155,5.0,16.0,85,0.00,,,0.12,LWC V1.12 B30,2013-01-14 04:42:00,
2013-01-14 05:47:00,48.4,44.4,30.18,SE,124,17.0,19.0,86,0.00,,,0.12,LWC V1.12 B30,2013-01-14 04:47:00,
2013-01-14 05:52:00,48.4,44.4,30.19,South,178,11.0,18.0,86,0.00,,,0.12,LWC V1.12 B30,2013-01-14 04:52:00,
2013-01-14 05:57:00,48.5,44.5,30.19,SSE,164,12.0,17.0,86,0.00,,,0.12,LWC V1.12 B30,2013-01-14 04:57:00,
2013-01-14 06:00:00,48.5,44.5,30.18,SE,146,15.0,24.0,86,0.00,,,0.12,LWC V1.12 B30,2013-01-14 05:00:00,
2013-01-14 06:01:00,48.5,44.5,30.19,SSE,161,14.0,29.0,86,0.00,,,0.13,LWC V1.12 B30,2013-01-14 05:01:00,
2013-01-14 06:06:00,48.6,44.3,30.19,SE,140,20.0,25.0,85,0.00,,,0.13,LWC V1.12 B30,2013-01-14 05:06:00,
2013-01-14 06:11:00,48.6,44.6,30.19,SE,142,12.0,19.0,86,0.00,,,0.13,LWC V1.12 B30,2013-01-14 05:11:00,
2013-01-14 06:16:00,48.5,44.5,30.19,SSE,164,11.0,15.0,86,0.00,,,0.13,LWC V1.12 B30,2013-01-14 05:16:00,
2013-01-14 06:21:00,48.3,44.3,30.19,SSE,150,14.0,16.0,86,0.00,,,0.13,LWC V1.12 B30,2013-01-14 05:21:00,
2013-01-14 06:26:00,48.1,44.1,30.20,SE,137,11.0,12.0,86,0.00,,,0.13,LWC V1.12 B30,2013-01-14 05:26:00,
2013-01-14 06:31:00,48.0,44.0,30.19,South,169,5.0,17.0,86,0.00,,,0.13,LWC V1.12 B30,2013-01-14 05:31:00,
2013-01-14 06:36:00,47.9,44.2,30.19,SSE,155,4.0,10.0,87,0.00,,,0.13,LWC V1.12 B30,2013-01-14 05:36:00,
2013-01-14 06:41:00,47.8,44.1,30.19,South,171,5.0,14.0,87,0.00,,,0.13,LWC V1.12 B30,2013-01-14 05:41:00,
2013-01-14 06:46:00,47.7,44.0,30.20,SSE,152,3.0,7.0,87,0.00,,,0.13,LWC V1.12 B30,2013-01-14 05:46:00,
2013-01-14 06:51:00,47.6,43.9,30.20,South,172,9.0,14.0,87,0.00,,,0.13,LWC V1.12 B30,2013-01-14 05:51:00,
2013-01-14 06:56:00,47.4,44.0,30.20,SSE,156,3.0,11.0,88,0.00,,,0.13,LWC V1.12 B30,2013-01-14 05:56:00,
2013-01-14 07:01:00,47.3,43.9,30.20,SE,142,5.0,12.0,88,0.00,,,0.13,LWC V1.12 B30,2013-01-14 06:01:00,
2013-01-14 07:06:00,47.2,43.5,30.20,SE,126,12.0,15.0,87,0.00,,,0.13,LWC V1.12 B30,2013-01-14 06:06:00,
2013-01-14 07:11:00,47.2,43.5,30.20,SE,142,7.0,10.0,87,0.00,,,0.13,LWC V1.12 B30,2013-01-14 06:11:00,
2013-01-14 07:16:00,47.2,43.5,30.20,SSE,156,3.0,15.0,87,0.00,,,0.13,LWC V1.12 B30,2013-01-14 06:16:00,
2013-01-14 07:21:00,47.2,43.5,30.20,SE,146,11.0,17.0,87,0.00,,,0.13,LWC V1.12 B30,2013-01-14 06:21:00,
2013-01-14 07:26:00,47.3,43.6,30.20,SSE,156,6.0,11.0,87,0.00,,,0.13,LWC V1.12 B30,2013-01-14 06:26:00,
2013-01-14 07:31:00,47.3,43.6,30.20,SSE,154,11.0,11.0,87,0.00,,,0.13,LWC V1.12 B30,2013-01-14 06:31:00,
2013-01-14 07:36:00,47.3,43.6,30.20,SE,140,6.0,9.0,87,0.00,,,0.13,LWC V1.12 B30,2013-01-14 06:36:00,
2013-01-14 07:41:00,47.2,43.5,30.20,SSE,149,3.0,6.0,87,0.00,,,0.13,LWC V1.12 B30,2013-01-14 06:41:00,
2013-01-14 07:46:00,47.1,43.4,30.20,SSW,192,5.0,12.0,87,0.00,,,0.13,LWC V1.12 B30,2013-01-14 06:46:00,
2013-01-14 07:51:00,47.1,43.4,30.20,SE,125,5.0,5.0,87,0.00,,,0.13,LWC V1.12 B30,2013-01-14 06:51:00,
2013-01-14 07:56:00,47.1,43.7,30.20,SSE,155,8.0,13.0,88,0.00,,,0.13,LWC V1.12 B30,2013-01-14 06:56:00,
2013-01-14 08:01:00,47.1,43.7,30.20,SE,139,5.0,14.0,88,0.00,,,0.13,LWC V1.12 B30,2013-01-14 07:01:00,
2013-01-14 08:06:00,47.1,43.7,30.20,South,172,3.0,5.0,88,0.00,,,0.13,LWC V1.12 B30,2013-01-14 07:06:00,
2013-01-14 08:11:00,47.1,43.7,30.21,ENE,61,6.0,6.0,88,0.00,,,0.13,LWC V1.12 B30,2013-01-14 07:11:00,
2013-01-14 08:16:00,47.1,43.7,30.21,SSE,156,4.0,10.0,88,0.00,,,0.13,LWC V1.12 B30,2013-01-14 07:16:00,
2013-01-14 08:21:00,47.1,43.7,30.21,South,191,2.0,15.0,88,0.00,,,0.13,LWC V1.12 B30,2013-01-14 07:21:00,
2013-01-14 08:26:00,47.1,43.7,30.21,SSE,151,14.0,14.0,88,0.00,,,0.13,LWC V1.12 B30,2013-01-14 07:26:00,
2013-01-14 08:31:00,47.1,43.7,30.21,SSE,166,3.0,9.0,88,0.00,,,0.13,LWC V1.12 B30,2013-01-14 07:31:00,
2013-01-14 08:36:00,47.1,43.7,30.21,SSE,153,5.0,11.0,88,0.00,,,0.13,LWC V1.12 B30,2013-01-14 07:36:00,
2013-01-14 08:41:00,46.9,43.2,30.21,SSE,165,5.0,13.0,87,0.00,,,0.13,LWC V1.12 B30,2013-01-14 07:41:00,
2013-01-14 08:46:00,47.0,43.3,30.21,SSE,148,9.0,13.0,87,0.00,,,0.13,LWC V1.12 B30,2013-01-14 07:46:00,
2013-01-14 08:51:00,47.1,43.7,30.21,SE,139,11.0,13.0,88,0.00,,,0.13,LWC V1.12 B30,2013-01-14 07:51:00,
2013-01-14 08:56:00,47.2,43.8,30.21,SE,134,7.0,12.0,88,0.00,,,0.13,LWC V1.12 B30,2013-01-14 07:56:00,
2013-01-14 09:01:00,47.2,43.8,30.21,SSE,167,5.0,14.0,88,0.00,,,0.13,LWC V1.12 B30,2013-01-14 08:01:00,
2013-01-14 09:06:00,47.3,43.9,30.21,ESE,119,16.0,16.0,88,0.00,,,0.13,LWC V1.12 B30,2013-01-14 08:06:00,
2013-01-14 09:11:00,47.3,43.9,30.21,SE,140,13.0,21.0,88,0.00,,,0.13,LWC V1.12 B30,2013-01-14 08:11:00,
2013-01-14 09:16:00,47.4,44.0,30.21,South,182,9.0,14.0,88,0.00,,,0.13,LWC V1.12 B30,2013-01-14 08:16:00,
2013-01-14 09:21:00,47.5,43.8,30.22,SSE,159,4.0,15.0,87,0.00,,,0.13,LWC V1.12 B30,2013-01-14 08:21:00,
2013-01-14 09:26:00,47.6,43.6,30.21,SSE,156,11.0,19.0,86,0.00,,,0.13,LWC V1.12 B30,2013-01-14 08:26:00,
2013-01-14 09:31:00,47.7,43.7,30.22,SSE,165,5.0,23.0,86,0.00,,,0.13,LWC V1.12 B30,2013-01-14 08:31:00,
2013-01-14 09:36:00,47.9,43.9,30.22,South,178,4.0,19.0,86,0.00,,,0.13,LWC V1.12 B30,2013-01-14 08:36:00,
2013-01-14 09:41:00,48.0,44.0,30.22,South,173,4.0,10.0,86,0.00,,,0.13,LWC V1.12 B30,2013-01-14 08:41:00,
2013-01-14 09:46:00,48.0,44.0,30.21,South,178,14.0,15.0,86,0.00,,,0.13,LWC V1.12 B30,2013-01-14 08:46:00,
2013-01-14 09:51:00,47.9,43.9,30.22,South,186,5.0,16.0,86,0.00,,,0.13,LWC V1.12 B30,2013-01-14 08:51:00,
2013-01-14 09:56:00,47.9,43.9,30.22,SSE,161,11.0,18.0,86,0.00,,,0.13,LWC V1.12 B30,2013-01-14 08:56:00,
2013-01-14 10:01:00,47.9,43.9,30.22,SSE,156,6.0,16.0,86,0.00,,,0.13,LWC V1.12 B30,2013-01-14 09:01:00,
2013-01-14 10:06:00,47.9,43.6,30.22,SE,142,5.0,12.0,85,0.00,,,0.13,LWC V1.12 B30,2013-01-14 09:06:00,
2013-01-14 10:11:00,47.9,43.6,30.22,SSE,150,11.0,12.0,85,0.00,,,0.13,LWC V1.12 B30,2013-01-14 09:11:00,
2013-01-14 10:16:00,47.8,43.8,30.22,South,184,10.0,12.0,86,0.00,,,0.13,LWC V1.12 B30,2013-01-14 09:16:00,
2013-01-14 10:21:00,47.6,43.6,30.22,SSE,155,5.0,16.0,86,0.00,,,0.13,LWC V1.12 B30,2013-01-14 09:21:00,
2013-01-14 10:26:00,46.9,42.9,30.23,SE,130,5.0,9.0,86,0.24,,,0.13,LWC V1.12 B30,2013-01-14 09:26:00,
2013-01-14 10:31:00,46.4,42.7,30.23,SSW,213,9.0,10.0,87,0.19,,,0.20,LWC V1.12 B30,2013-01-14 09:31:00,
2013-01-14 10:36:00,46.2,42.8,30.23,South,171,6.0,11.0,88,0.14,,,0.20,LWC V1.12 B30,2013-01-14 09:36:00,
2013-01-14 10:41:00,46.3,43.2,30.23,SSE,153,2.0,9.0,89,0.07,,,0.20,LWC V1.12 B30,2013-01-14 09:41:00,
2013-01-14 10:46:00,46.5,43.7,30.23,South,172,4.0,13.0,90,0.04,,,0.21,LWC V1.12 B30,2013-01-14 09:46:00,
2013-01-14 10:51:00,46.7,43.9,30.23,SE,146,4.0,9.0,90,0.00,,,0.21,LWC V1.12 B30,2013-01-14 09:51:00,
2013-01-14 10:56:00,46.9,44.4,30.23,ESE,121,10.0,10.0,91,0.00,,,0.21,LWC V1.12 B30,2013-01-14 09:56:00,
2013-01-14 11:01:00,47.2,44.7,30.23,SSE,157,11.0,14.0,91,0.00,,,0.21,LWC V1.12 B30,2013-01-14 10:01:00,
2013-01-14 11:06:00,47.3,44.8,30.23,SE,128,11.0,11.0,91,0.00,,,0.21,LWC V1.12 B30,2013-01-14 10:06:00,
2013-01-14 11:11:00,47.2,44.7,30.23,South,171,3.0,11.0,91,0.00,,,0.21,LWC V1.12 B30,2013-01-14 10:11:00,
2013-01-14 11:16:00,47.3,44.8,30.23,South,184,6.0,10.0,91,0.00,,,0.21,LWC V1.12 B30,2013-01-14 10:16:00,
2013-01-14 11:21:00,47.3,44.8,30.23,SE,144,1.0,3.0,91,0.00,,,0.21,LWC V1.12 B30,2013-01-14 10:21:00,
2013-01-14 11:26:00,46.9,44.1,30.23,WNW,303,3.0,10.0,90,0.28,,,0.21,LWC V1.12 B30,2013-01-14 10:26:00,
2013-01-14 11:31:00,46.2,43.1,30.23,South,170,5.0,12.0,89,0.55,,,0.30,LWC V1.12 B30,2013-01-14 10:31:00,
2013-01-14 11:36:00,45.5,42.7,30.23,SSE,148,1.0,4.0,90,0.13,,,0.30,LWC V1.12 B30,2013-01-14 10:36:00,
2013-01-14 11:41:00,45.4,42.6,30.23,WSW,255,1.0,4.0,90,0.07,,,0.30,LWC V1.12 B30,2013-01-14 10:41:00,
2013-01-14 11:46:00,45.5,43.0,30.23,SSW,198,1.0,3.0,91,0.07,,,0.32,LWC V1.12 B30,2013-01-14 10:46:00,
2013-01-14 11:51:00,45.7,43.2,30.23,SSW,202,2.0,4.0,91,0.06,,,0.32,LWC V1.12 B30,2013-01-14 10:51:00,
2013-01-14 11:56:00,45.8,43.3,30.23,South,184,3.0,6.0,91,0.04,,,0.32,LWC V1.12 B30,2013-01-14 10:56:00,
2013-01-14 12:01:00,46.0,43.8,30.23,South,191,1.0,8.0,92,0.00,,,0.32,LWC V1.12 B30,2013-01-14 11:01:00,
2013-01-14 12:06:00,46.2,44.0,30.23,South,171,5.0,9.0,92,0.00,,,0.32,LWC V1.12 B30,2013-01-14 11:06:00,
2013-01-14 12:11:00,46.3,44.1,30.22,SSW,211,1.0,7.0,92,0.00,,,0.32,LWC V1.12 B30,2013-01-14 11:11:00,
2013-01-14 12:16:00,46.4,44.2,30.22,South,172,3.0,4.0,92,0.00,,,0.32,LWC V1.12 B30,2013-01-14 11:16:00,
2013-01-14 12:21:00,46.5,44.3,30.22,SSE,160,2.0,3.0,92,0.00,,,0.32,LWC V1.12 B30,2013-01-14 11:21:00,
2013-01-14 12:26:00,46.5,44.3,30.22,SSW,195,1.0,10.0,92,0.00,,,0.32,LWC V1.12 B30,2013-01-14 11:26:00,
2013-01-14 12:31:00,46.4,44.2,30.22,SSW,194,1.0,3.0,92,0.00,,,0.33,LWC V1.12 B30,2013-01-14 11:31:00,
2013-01-14 12:36:00,46.4,44.2,30.22,NW,309,2.0,3.0,92,0.00,,,0.33,LWC V1.12 B30,2013-01-14 11:36:00,
2013-01-14 12:41:00,46.4,44.2,30.22,South,175,6.0,6.0,92,0.00,,,0.33,LWC V1.12 B30,2013-01-14 11:41:00,
2013-01-14 12:46:00,46.3,44.1,30.22,SSE,163,2.0,2.0,92,0.00,,,0.33,LWC V1.12 B30,2013-01-14 11:46:00,
2013-01-14 12:51:00,46.4,44.2,30.22,South,175,4.0,5.0,92,0.00,,,0.33,LWC V1.12 B30,2013-01-14 11:51:00,
2013-01-14 12:56:00,46.4,44.2,30.22,SSW,209,4.0,4.0,92,0.00,,,0.33,LWC V1.12 B30,2013-01-14 11:56:00,
2013-01-14 13:01:00,46.4,44.2,30.22,South,171,2.0,3.0,92,0.00,,,0.33,LWC V1.12 B30,2013-01-14 12:01:00,
2013-01-14 13:06:00,46.5,44.3,30.22,West,265,2.0,6.0,92,0.00,,,0.33,LWC V1.12 B30,2013-01-14 12:06:00,
2013-01-14 13:11:00,46.4,44.2,30.21,SSE,148,2.0,6.0,92,0.00,,,0.33,LWC V1.12 B30,2013-01-14 12:11:00,
2013-01-14 13:16:00,46.3,44.1,30.21,SSW,212,3.0,3.0,92,0.00,,,0.33,LWC V1.12 B30,2013-01-14 12:16:00,
2013-01-14 13:21:00,46.2,44.0,30.21,West,267,2.0,6.0,92,0.00,,,0.33,LWC V1.12 B30,2013-01-14 12:21:00,
2013-01-14 13:26:00,46.1,43.9,30.21,SSE,166,1.0,7.0,92,0.00,,,0.33,LWC V1.12 B30,2013-01-14 12:26:00,
2013-01-14 13:31:00,46.2,44.0,30.21,South,182,5.0,7.0,92,0.00,,,0.33,LWC V1.12 B30,2013-01-14 12:31:00,
2013-01-14 13:36:00,46.4,44.2,30.21,ESE,114,3.0,6.0,92,0.00,,,0.33,LWC V1.12 B30,2013-01-14 12:36:00,
2013-01-14 13:41:00,46.4,43.9,30.21,South,174,4.0,5.0,91,0.00,,,0.33,LWC V1.12 B30,2013-01-14 12:41:00,
2013-01-14 13:46:00,46.4,43.9,30.21,WNW,288,0.0,5.0,91,0.00,,,0.33,LWC V1.12 B30,2013-01-14 12:46:00,
2013-01-14 13:51:00,46.6,44.1,30.21,South,188,4.0,5.0,91,0.00,,,0.33,LWC V1.12 B30,2013-01-14 12:51:00,
2013-01-14 13:56:00,46.6,44.1,30.21,SSW,194,2.0,9.0,91,0.00,,,0.33,LWC V1.12 B30,2013-01-14 12:56:00,
2013-01-14 14:01:00,46.8,44.3,30.21,SSW,194,2.0,5.0,91,0.00,,,0.33,LWC V1.12 B30,2013-01-14 13:01:00,
2013-01-14 14:06:00,46.8,44.0,30.21,SSE,147,2.0,5.0,90,0.00,,,0.33,LWC V1.12 B30,2013-01-14 13:06:00,
2013-01-14 14:11:00,46.8,44.0,30.21,SSW,198,3.0,4.0,90,0.00,,,0.33,LWC V1.12 B30,2013-01-14 13:11:00,
2013-01-14 14:16:00,46.8,44.0,30.21,SSE,156,2.0,4.0,90,0.00,,,0.33,LWC V1.12 B30,2013-01-14 13:16:00,
2013-01-14 14:21:00,46.8,43.7,30.21,South,179,5.0,9.0,89,0.00,,,0.33,LWC V1.12 B30,2013-01-14 13:21:00,
2013-01-14 14:26:00,46.6,43.5,30.21,South,171,6.0,6.0,89,0.00,,,0.33,LWC V1.12 B30,2013-01-14 13:26:00,
2013-01-14 14:31:00,46.6,43.5,30.21,SSW,211,2.0,10.0,89,0.00,,,0.33,LWC V1.12 B30,2013-01-14 13:31:00,
2013-01-14 14:36:00,46.6,43.2,30.21,SE,142,4.0,11.0,88,0.00,,,0.33,LWC V1.12 B30,2013-01-14 13:36:00,
2013-01-14 14:41:00,46.4,43.0,30.21,South,184,3.0,7.0,88,0.00,,,0.33,LWC V1.12 B30,2013-01-14 13:41:00,
2013-01-14 14:46:00,46.4,43.0,30.21,South,172,1.0,7.0,88,0.00,,,0.33,LWC V1.12 B30,2013-01-14 13:46:00,
2013-01-14 14:51:00,46.5,43.1,30.21,SSW,196,1.0,6.0,88,0.00,,,0.33,LWC V1.12 B30,2013-01-14 13:51:00,
2013-01-14 14:56:00,46.5,43.1,30.22,South,169,2.0,2.0,88,0.00,,,0.33,LWC V1.12 B30,2013-01-14 13:56:00,
2013-01-14 15:01:00,46.5,43.1,30.21,SSW,198,1.0,3.0,88,0.00,,,0.33,LWC V1.12 B30,2013-01-14 14:01:00,
2013-01-14 15:06:00,46.5,43.1,30.22,SSW,196,1.0,3.0,88,0.00,,,0.33,LWC V1.12 B30,2013-01-14 14:06:00,
2013-01-14 15:11:00,46.5,43.1,30.21,SW,217,2.0,7.0,88,0.00,,,0.33,LWC V1.12 B30,2013-01-14 14:11:00,
2013-01-14 15:16:00,46.4,43.0,30.21,South,179,2.0,5.0,88,0.00,,,0.33,LWC V1.12 B30,2013-01-14 14:16:00,
2013-01-14 15:21:00,46.4,43.0,30.22,SSE,167,1.0,6.0,88,0.00,,,0.33,LWC V1.12 B30,2013-01-14 14:21:00,
2013-01-14 15:26:00,46.4,43.0,30.22,SE,140,2.0,10.0,88,0.00,,,0.33,LWC V1.12 B30,2013-01-14 14:26:00,
2013-01-14 15:31:00,46.3,42.9,30.22,South,190,3.0,9.0,88,0.00,,,0.33,LWC V1.12 B30,2013-01-14 14:31:00,
2013-01-14 15:36:00,46.3,42.9,30.22,South,182,1.0,9.0,88,0.00,,,0.33,LWC V1.12 B30,2013-01-14 14:36:00,
2013-01-14 15:41:00,46.3,42.9,30.22,South,186,2.0,11.0,88,0.00,,,0.33,LWC V1.12 B30,2013-01-14 14:41:00,
2013-01-14 15:46:00,46.2,42.8,30.22,SSE,163,2.0,3.0,88,0.00,,,0.33,LWC V1.12 B30,2013-01-14 14:46:00,
2013-01-14 15:51:00,46.2,42.8,30.22,South,188,5.0,5.0,88,0.00,,,0.33,LWC V1.12 B30,2013-01-14 14:51:00,
2013-01-14 15:56:00,46.1,42.7,30.22,SSE,156,2.0,7.0,88,0.00,,,0.33,LWC V1.12 B30,2013-01-14 14:56:00,
2013-01-14 16:01:00,45.9,42.5,30.22,SE,140,1.0,2.0,88,0.00,,,0.33,LWC V1.12 B30,2013-01-14 15:01:00,
2013-01-14 16:06:00,45.8,42.5,30.22,SE,132,3.0,3.0,88,0.00,,,0.33,LWC V1.12 B30,2013-01-14 15:06:00,
2013-01-14 16:11:00,45.7,42.1,30.22,South,175,1.0,5.0,87,0.00,,,0.33,LWC V1.12 B30,2013-01-14 15:11:00,
2013-01-14 16:16:00,45.6,42.0,30.22,SSE,152,1.0,4.0,87,0.00,,,0.33,LWC V1.12 B30,2013-01-14 15:16:00,
2013-01-14 16:21:00,45.5,41.9,30.22,North,349,3.0,5.0,87,0.00,,,0.33,LWC V1.12 B30,2013-01-14 15:21:00,
2013-01-14 16:26:00,45.5,41.9,30.22,ESE,113,1.0,3.0,87,0.00,,,0.33,LWC V1.12 B30,2013-01-14 15:26:00,
2013-01-14 16:31:00,45.5,41.9,30.22,SSE,164,6.0,6.0,87,0.00,,,0.33,LWC V1.12 B30,2013-01-14 15:31:00,
2013-01-14 16:36:00,45.4,41.8,30.22,SSE,149,4.0,5.0,87,0.00,,,0.33,LWC V1.12 B30,2013-01-14 15:36:00,
2013-01-14 16:41:00,45.4,41.8,30.22,SSE,155,1.0,2.0,87,0.00,,,0.33,LWC V1.12 B30,2013-01-14 15:41:00,
2013-01-14 16:46:00,45.4,41.8,30.22,SSE,163,1.0,4.0,87,0.00,,,0.33,LWC V1.12 B30,2013-01-14 15:46:00,
2013-01-14 16:51:00,45.4,41.8,30.21,South,172,6.0,7.0,87,0.00,,,0.33,LWC V1.12 B30,2013-01-14 15:51:00,
2013-01-14 16:56:00,45.3,41.7,30.22,SSE,150,2.0,5.0,87,0.00,,,0.33,LWC V1.12 B30,2013-01-14 15:56:00,
2013-01-14 17:01:00,45.1,41.5,30.22,SE,140,1.0,4.0,87,0.00,,,0.33,LWC V1.12 B30,2013-01-14 16:01:00,
2013-01-14 17:06:00,45.1,41.8,30.22,SSW,199,2.0,5.0,88,0.00,,,0.33,LWC V1.12 B30,2013-01-14 16:06:00,
2013-01-14 17:11:00,45.1,41.8,30.21,SW,231,1.0,2.0,88,0.00,,,0.33,LWC V1.12 B30,2013-01-14 16:11:00,
2013-01-14 17:16:00,45.1,42.1,30.22,SW,223,1.0,3.0,89,0.00,,,0.33,LWC V1.12 B30,2013-01-14 16:16:00,
2013-01-14 17:21:00,45.1,42.1,30.22,SSW,212,3.0,6.0,89,0.00,,,0.33,LWC V1.12 B30,2013-01-14 16:21:00,
2013-01-14 17:26:00,45.0,42.0,30.22,SE,126,1.0,5.0,89,0.00,,,0.33,LWC V1.12 B30,2013-01-14 16:26:00,
2013-01-14 17:31:00,45.0,42.0,30.22,ESE,123,1.0,2.0,89,0.00,,,0.33,LWC V1.12 B30,2013-01-14 16:31:00,
2013-01-14 17:36:00,44.9,41.9,30.22,SSE,153,3.0,3.0,89,0.00,,,0.33,LWC V1.12 B30,2013-01-14 16:36:00,
2013-01-14 17:41:00,44.9,41.9,30.22,SSE,164,2.0,4.0,89,0.00,,,0.33,LWC V1.12 B30,2013-01-14 16:41:00,
2013-01-14 17:46:00,44.9,41.9,30.22,SE,125,2.0,4.0,89,0.00,,,0.33,LWC V1.12 B30,2013-01-14 16:46:00,
2013-01-14 17:51:00,44.9,41.9,30.22,South,173,2.0,8.0,89,0.00,,,0.33,LWC V1.12 B30,2013-01-14 16:51:00,
2013-01-14 17:56:00,44.9,42.1,30.22,South,178,1.0,4.0,90,0.00,,,0.33,LWC V1.12 B30,2013-01-14 16:56:00,
2013-01-14 18:01:00,44.9,42.1,30.22,SSE,151,9.0,13.0,90,0.13,,,0.35,LWC V1.12 B30,2013-01-14 17:01:00,
2013-01-14 18:06:00,44.9,42.1,30.22,SE,139,1.0,3.0,90,0.06,,,0.35,LWC V1.12 B30,2013-01-14 17:06:00,
2013-01-14 18:11:00,44.9,42.1,30.22,SE,141,4.0,5.0,90,0.04,,,0.35,LWC V1.12 B30,2013-01-14 17:11:00,
2013-01-14 18:16:00,44.7,41.9,30.22,South,186,1.0,5.0,90,0.00,,,0.35,LWC V1.12 B30,2013-01-14 17:16:00,
2013-01-14 18:21:00,44.6,41.8,30.22,WNW,290,1.0,3.0,90,0.00,,,0.35,LWC V1.12 B30,2013-01-14 17:21:00,
2013-01-14 18:26:00,44.5,41.8,30.22,SSW,204,1.0,4.0,90,0.00,,,0.35,LWC V1.12 B30,2013-01-14 17:26:00,
2013-01-14 18:31:00,44.3,41.6,30.22,SW,215,3.0,3.0,90,0.00,,,0.35,LWC V1.12 B30,2013-01-14 17:31:00,
2013-01-14 18:36:00,44.2,41.5,30.22,WSW,246,0.0,3.0,90,0.00,,,0.35,LWC V1.12 B30,2013-01-14 17:36:00,
2013-01-14 18:41:00,44.0,41.0,30.22,West,274,0.0,2.0,89,0.00,,,0.35,LWC V1.12 B30,2013-01-14 17:41:00,
2013-01-14 18:46:00,43.9,40.9,30.22,SSE,149,2.0,3.0,89,0.00,,,0.35,LWC V1.12 B30,2013-01-14 17:46:00,
2013-01-14 18:51:00,43.8,40.8,30.22,SSW,211,2.0,4.0,89,0.00,,,0.35,LWC V1.12 B30,2013-01-14 17:51:00,
2013-01-14 18:56:00,43.7,40.7,30.22,SW,217,0.0,2.0,89,0.00,,,0.35,LWC V1.12 B30,2013-01-14 17:56:00,
2013-01-14 19:01:00,43.6,40.6,30.22,WSW,240,0.0,2.0,89,0.00,,,0.35,LWC V1.12 B30,2013-01-14 18:01:00,
2013-01-14 19:06:00,43.4,40.4,30.22,WSW,239,0.0,1.0,89,0.00,,,0.35,LWC V1.12 B30,2013-01-14 18:06:00,
2013-01-14 19:11:00,43.4,40.4,30.22,WSW,239,2.0,2.0,89,0.00,,,0.35,LWC V1.12 B30,2013-01-14 18:11:00,
2013-01-14 19:16:00,43.4,40.4,30.21,WSW,239,2.0,2.0,89,0.00,,,0.35,LWC V1.12 B30,2013-01-14 18:16:00,
2013-01-14 19:21:00,-999.0,-99.9,30.22,North,-999,-999.0,0.0,-999,0.00,,,0.35,LWC V1.12 B30,2013-01-14 18:21:00,
2013-01-14 19:26:00,-999.0,-99.9,30.22,North,-999,-999.0,0.0,-999,0.00,,,0.35,LWC V1.12 B30,2013-01-14 18:26:00,
2013-01-14 19:31:00,-999.0,-99.9,30.22,North,-999,-999.0,0.0,-999,0.00,,,0.52,LWC V1.12 B30,2013-01-14 18:31:00,
2013-01-14 19:36:00,-999.0,-99.9,30.22,North,-999,-999.0,0.0,-999,0.00,,,0.35,LWC V1.12 B30,2013-01-14 18:36:00,
2013-01-14 19:42:00,-999.0,-99.9,30.22,North,-999,-999.0,0.0,-999,0.00,,,0.35,LWC V1.12 B30,2013-01-14 18:42:00,
2013-01-14 19:47:00,-999.0,-99.9,30.22,North,-999,-999.0,0.0,-999,0.00,,,0.52,LWC V1.12 B30,2013-01-14 18:47:00,
2013-01-14 19:52:00,-999.0,-99.9,30.22,North,-999,-999.0,0.0,-999,0.00,,,0.35,LWC V1.12 B30,2013-01-14 18:52:00,
2013-01-14 19:57:00,-999.0,-99.9,30.22,North,-999,-999.0,0.0,-999,0.00,,,0.35,LWC V1.12 B30,2013-01-14 18:57:00,
2013-01-14 20:02:00,-999.0,-99.9,30.23,North,-999,-999.0,0.0,-999,0.00,,,0.52,LWC V1.12 B30,2013-01-14 19:02:00,
2013-01-14 20:07:00,-999.0,-99.9,30.22,North,-999,-999.0,0.0,-999,0.00,,,0.35,LWC V1.12 B30,2013-01-14 19:07:00,
2013-01-14 20:12:00,-999.0,-99.9,30.23,North,-999,-999.0,0.0,-999,0.00,,,0.35,LWC V1.12 B30,2013-01-14 19:12:00,
2013-01-14 20:18:00,-999.0,-99.9,30.23,North,-999,-999.0,0.0,-999,0.00,,,0.35,LWC V1.12 B30,2013-01-14 19:18:00,
2013-01-14 20:23:00,-999.0,-99.9,30.23,North,-999,-999.0,0.0,-999,0.00,,,0.35,LWC V1.12 B30,2013-01-14 19:23:00,
2013-01-14 20:28:00,-999.0,-99.9,30.23,North,-999,-999.0,0.0,-999,0.00,,,0.35,LWC V1.12 B30,2013-01-14 19:28:00,
2013-01-14 20:34:00,-999.0,-99.9,30.23,North,-999,-999.0,0.0,-999,0.00,,,0.35,LWC V1.12 B30,2013-01-14 19:34:00,
2013-01-14 20:39:00,-999.0,-99.9,30.23,North,-999,-999.0,0.0,-999,0.00,,,0.35,LWC V1.12 B30,2013-01-14 19:39:00,
2013-01-14 20:44:00,-999.0,-99.9,30.23,North,-999,-999.0,0.0,-999,0.00,,,0.35,LWC V1.12 B30,2013-01-14 19:44:00,
2013-01-14 20:49:00,-999.0,-99.9,30.23,North,-999,-999.0,0.0,-999,0.00,,,0.35,LWC V1.12 B30,2013-01-14 19:49:00,
2013-01-14 20:54:00,-999.0,-99.9,30.23,North,-999,-999.0,0.0,-999,0.00,,,0.35,LWC V1.12 B30,2013-01-14 19:54:00,
2013-01-14 21:00:00,-999.0,-99.9,30.23,North,-999,-999.0,0.0,-999,0.00,,,0.35,LWC V1.12 B30,2013-01-14 20:00:00,
2013-01-14 21:05:00,-999.0,-99.9,30.23,North,-999,-999.0,0.0,-999,0.00,,,0.35,LWC V1.12 B30,2013-01-14 20:05:00,
2013-01-14 21:10:00,-999.0,-99.9,30.23,North,-999,-999.0,0.0,-999,0.00,,,0.35,LWC V1.12 B30,2013-01-14 20:10:00,
2013-01-14 21:15:00,-999.0,-99.9,30.23,North,-999,-999.0,0.0,-999,0.00,,,0.52,LWC V1.12 B30,2013-01-14 20:15:00,
2013-01-14 21:20:00,-999.0,-99.9,30.23,North,-999,-999.0,0.0,-999,0.00,,,0.35,LWC V1.12 B30,2013-01-14 20:20:00,
2013-01-14 21:26:00,-999.0,-99.9,30.23,North,-999,-999.0,0.0,-999,0.00,,,0.35,LWC V1.12 B30,2013-01-14 20:26:00,
2013-01-14 21:31:00,-999.0,-99.9,30.23,North,-999,-999.0,0.0,-999,0.00,,,0.52,LWC V1.12 B30,2013-01-14 20:31:00,
2013-01-14 21:36:00,-999.0,-99.9,30.23,North,-999,-999.0,0.0,-999,0.00,,,0.35,LWC V1.12 B30,2013-01-14 20:36:00,
2013-01-14 21:41:00,-999.0,-99.9,30.23,North,-999,-999.0,0.0,-999,0.00,,,0.35,LWC V1.12 B30,2013-01-14 20:41:00,
2013-01-14 21:46:00,-999.0,-99.9,30.23,North,-999,-999.0,0.0,-999,0.00,,,0.52,LWC V1.12 B30,2013-01-14 20:46:00,
2013-01-14 22:57:00,-999.0,-99.9,30.23,North,-999,-999.0,0.0,-999,0.00,,,0.35,LWC V1.12 B30,2013-01-14 21:57:00,
2013-01-14 23:03:00,-999.0,-99.9,30.23,North,-999,-999.0,0.0,-999,0.00,,,0.35,LWC V1.12 B30,2013-01-14 22:03:00,
2013-01-14 23:08:00,-999.0,-99.9,30.23,North,-999,-999.0,0.0,-999,0.00,,,0.35,LWC V1.12 B30,2013-01-14 22:08:00,
2013-01-14 23:13:00,-999.0,-99.9,30.23,North,-999,-999.0,0.0,-999,0.00,,,0.35,LWC V1.12 B30,2013-01-14 22:13:00,
2013-01-14 23:26:00,-999.0,-99.9,30.23,North,-999,-999.0,0.0,-999,0.00,,,0.35,LWC V1.12 B30,2013-01-14 22:26:00,
2013-01-14 23:31:00,-999.0,-99.9,30.23,North,-999,-999.0,0.0,-999,0.00,,,0.35,LWC V1.12 B30,2013-01-14 22:31:00,
2013-01-14 23:36:00,-999.0,-99.9,30.23,North,-999,-999.0,0.0,-999,0.00,,,0.28,LWC V1.12 B30,2013-01-14 22:36:00,
2013-01-14 23:41:00,-999.0,-99.9,30.23,North,-999,-999.0,0.0,-999,0.00,,,0.28,LWC V1.12 B30,2013-01-14 22:41:00,
2013-01-14 23:47:00,-999.0,-99.9,30.23,North,-999,-999.0,0.0,-999,0.00,,,0.35,LWC V1.12 B30,2013-01-14 22:47:00,
2013-01-14 23:53:00,-999.0,-99.9,30.23,North,-999,-999.0,0.0,-999,0.00,,,0.28,LWC V1.12 B30,2013-01-14 22:53:00,
2013-01-14 23:58:00,-999.0,-99.9,30.23,North,-999,-999.0,0.0,-999,0.00,,,0.28,LWC V1.12 B30,2013-01-14 22:58:00,